AXB2607 EKCH-EDDH
Flight info
| Callsign | AXB2607 |
|---|---|
| Flight time | 1h 2m |
| Altitude | 24000 |
| Route | NEXEN T503 MICOS N850 BOGMU BOGMU3P |
| Aircraft | B738/M-SDE2E3FGHIRWXY/LB1 |
Departure
| Time | 2026-04-24 19:38 |
|---|---|
| Airport | Copenhagen Kastrup Airport (EKCH) |
Arrival
| Time | 2026-04-24 20:40 |
|---|---|
| Airport | Hamburg Helmut Schmidt Airport (EDDH) |
| Time | Latitude | Longitude | Altitude | Speed | Heading |
|---|---|---|---|---|---|
| 2026-04-24 19:14 | 55.62518 | 12.65575 | 18 ft | 0 kts | 24° |
| 2026-04-24 19:26 | 55.62510 | 12.65569 | 18 ft | 2 kts | 24° |
| 2026-04-24 19:27 | 55.62497 | 12.65558 | 18 ft | 2 kts | 24° |
| 2026-04-24 19:27 | 55.62483 | 12.65548 | 18 ft | 2 kts | 24° |
| 2026-04-24 19:27 | 55.62470 | 12.65537 | 18 ft | 2 kts | 24° |
| 2026-04-24 19:27 | 55.62461 | 12.65530 | 18 ft | 1 kts | 17° |
| 2026-04-24 19:28 | 55.62447 | 12.65534 | 18 ft | 2 kts | 317° |
| 2026-04-24 19:28 | 55.62441 | 12.65553 | 18 ft | 0 kts | 274° |
| 2026-04-24 19:28 | 55.62442 | 12.65564 | 18 ft | 1 kts | 267° |
| 2026-04-24 19:28 | 55.62442 | 12.65568 | 18 ft | 0 kts | 269° |
| 2026-04-24 19:31 | 55.62442 | 12.65526 | 18 ft | 7 kts | 269° |
| 2026-04-24 19:32 | 55.62441 | 12.65429 | 18 ft | 8 kts | 272° |
| 2026-04-24 19:32 | 55.62439 | 12.65303 | 18 ft | 10 kts | 269° |
| 2026-04-24 19:32 | 55.62406 | 12.65206 | 18 ft | 9 kts | 192° |
| 2026-04-24 19:32 | 55.62335 | 12.65204 | 18 ft | 12 kts | 182° |
| 2026-04-24 19:33 | 55.62235 | 12.65191 | 16 ft | 15 kts | 193° |
| 2026-04-24 19:33 | 55.62136 | 12.65094 | 15 ft | 16 kts | 213° |
| 2026-04-24 19:33 | 55.62032 | 12.64974 | 15 ft | 19 kts | 213° |
| 2026-04-24 19:33 | 55.61907 | 12.64831 | 15 ft | 23 kts | 213° |
| 2026-04-24 19:34 | 55.61776 | 12.64677 | 15 ft | 22 kts | 212° |
| 2026-04-24 19:34 | 55.61643 | 12.64529 | 15 ft | 22 kts | 213° |
| 2026-04-24 19:34 | 55.61518 | 12.64384 | 15 ft | 21 kts | 213° |
| 2026-04-24 19:34 | 55.61395 | 12.64251 | 16 ft | 19 kts | 213° |
| 2026-04-24 19:35 | 55.61283 | 12.64115 | 16 ft | 18 kts | 213° |
| 2026-04-24 19:35 | 55.61174 | 12.63991 | 15 ft | 20 kts | 214° |
| 2026-04-24 19:35 | 55.61043 | 12.63838 | 16 ft | 25 kts | 213° |
| 2026-04-24 19:35 | 55.60891 | 12.63664 | 16 ft | 25 kts | 213° |
| 2026-04-24 19:36 | 55.60783 | 12.63599 | 15 ft | 15 kts | 146° |
| 2026-04-24 19:36 | 55.60710 | 12.63740 | 15 ft | 15 kts | 131° |
| 2026-04-24 19:36 | 55.60667 | 12.63838 | 15 ft | 4 kts | 98° |
| 2026-04-24 19:36 | 55.60681 | 12.63876 | 15 ft | 3 kts | 41° |
| 2026-04-24 19:37 | 55.60729 | 12.63952 | 15 ft | 29 kts | 42° |
| 2026-04-24 19:37 | 55.61063 | 12.64463 | 15 ft | 94 kts | 41° |
| 2026-04-24 19:37 | 55.61699 | 12.65455 | 15 ft | 147 kts | 41° |
| 2026-04-24 19:37 | 55.62577 | 12.66819 | 129 ft | 179 kts | 41° |
| 2026-04-24 19:38 | 55.63487 | 12.68263 | 775 ft | 177 kts | 40° |
| 2026-04-24 19:38 | 55.64372 | 12.69706 | 1382 ft | 176 kts | 39° |
| 2026-04-24 19:38 | 55.65315 | 12.71174 | 1771 ft | 188 kts | 37° |
| 2026-04-24 19:38 | 55.66356 | 12.72704 | 2200 ft | 199 kts | 36° |
| 2026-04-24 19:39 | 55.67415 | 12.74328 | 2604 ft | 213 kts | 46° |
| 2026-04-24 19:39 | 55.68116 | 12.76774 | 2969 ft | 236 kts | 78° |
| 2026-04-24 19:39 | 55.67989 | 12.79785 | 3348 ft | 256 kts | 110° |
| 2026-04-24 19:39 | 55.67005 | 12.82452 | 3716 ft | 272 kts | 139° |
| 2026-04-24 19:40 | 55.65362 | 12.84090 | 4225 ft | 278 kts | 166° |
| 2026-04-24 19:40 | 55.63446 | 12.84765 | 4815 ft | 282 kts | 174° |
| 2026-04-24 19:40 | 55.61510 | 12.84944 | 5409 ft | 283 kts | 192° |
| 2026-04-24 19:40 | 55.59753 | 12.83628 | 6072 ft | 275 kts | 223° |
| 2026-04-24 19:41 | 55.58403 | 12.81283 | 6719 ft | 275 kts | 233° |
| 2026-04-24 19:41 | 55.57098 | 12.78760 | 7368 ft | 279 kts | 231° |
| 2026-04-24 19:41 | 55.55683 | 12.76359 | 8040 ft | 284 kts | 228° |
| 2026-04-24 19:41 | 55.54189 | 12.74067 | 8721 ft | 288 kts | 226° |
| 2026-04-24 19:42 | 55.52649 | 12.71810 | 9409 ft | 292 kts | 226° |
| 2026-04-24 19:42 | 55.51090 | 12.69558 | 10133 ft | 295 kts | 226° |
| 2026-04-24 19:42 | 55.49474 | 12.67215 | 10591 ft | 308 kts | 226° |
| 2026-04-24 19:42 | 55.47793 | 12.64762 | 10993 ft | 322 kts | 226° |
| 2026-04-24 19:43 | 55.46051 | 12.62205 | 11307 ft | 338 kts | 226° |
| 2026-04-24 19:43 | 55.44211 | 12.59512 | 11746 ft | 352 kts | 226° |
| 2026-04-24 19:43 | 55.42295 | 12.56726 | 12368 ft | 358 kts | 226° |
| 2026-04-24 19:43 | 55.40389 | 12.53972 | 13024 ft | 362 kts | 226° |
| 2026-04-24 19:44 | 55.38430 | 12.51147 | 13744 ft | 365 kts | 226° |
| 2026-04-24 19:44 | 55.36468 | 12.48319 | 14422 ft | 369 kts | 226° |
| 2026-04-24 19:44 | 55.34486 | 12.45462 | 15145 ft | 372 kts | 226° |
| 2026-04-24 19:44 | 55.32489 | 12.42583 | 15830 ft | 376 kts | 226° |
| 2026-04-24 19:45 | 55.30462 | 12.39663 | 16495 ft | 380 kts | 226° |
| 2026-04-24 19:45 | 55.28414 | 12.36719 | 17230 ft | 381 kts | 226° |
| 2026-04-24 19:45 | 55.26370 | 12.33782 | 17829 ft | 385 kts | 226° |
| 2026-04-24 19:45 | 55.24294 | 12.30802 | 18492 ft | 388 kts | 225° |
| 2026-04-24 19:46 | 55.22219 | 12.27828 | 19107 ft | 392 kts | 225° |
| 2026-04-24 19:46 | 55.20109 | 12.24805 | 19683 ft | 396 kts | 225° |
| 2026-04-24 19:46 | 55.17972 | 12.21749 | 20313 ft | 399 kts | 225° |
| 2026-04-24 19:46 | 55.15831 | 12.18689 | 20874 ft | 402 kts | 225° |
| 2026-04-24 19:47 | 55.13672 | 12.15608 | 21428 ft | 406 kts | 225° |
| 2026-04-24 19:47 | 55.11488 | 12.12495 | 21970 ft | 409 kts | 225° |
| 2026-04-24 19:47 | 55.09277 | 12.09350 | 22502 ft | 413 kts | 225° |
| 2026-04-24 19:47 | 55.07044 | 12.06176 | 22770 ft | 418 kts | 225° |
| 2026-04-24 19:48 | 55.04810 | 12.03010 | 22925 ft | 415 kts | 225° |
| 2026-04-24 19:48 | 55.02554 | 11.99822 | 22981 ft | 416 kts | 225° |
| 2026-04-24 19:48 | 54.98098 | 11.93542 | 22985 ft | 415 kts | 225° |
| 2026-04-24 19:49 | 54.93597 | 11.87217 | 22986 ft | 414 kts | 225° |
| 2026-04-24 19:49 | 54.89129 | 11.80957 | 22991 ft | 414 kts | 225° |
| 2026-04-24 19:50 | 54.82428 | 11.71597 | 22998 ft | 413 kts | 224° |
| 2026-04-24 19:50 | 54.80193 | 11.68484 | 22994 ft | 413 kts | 224° |
| 2026-04-24 19:51 | 54.75732 | 11.62281 | 22996 ft | 413 kts | 224° |
| 2026-04-24 19:51 | 54.73510 | 11.59198 | 23002 ft | 411 kts | 224° |
| 2026-04-24 19:52 | 54.69065 | 11.53041 | 23005 ft | 411 kts | 224° |
| 2026-04-24 19:52 | 54.66826 | 11.49941 | 23001 ft | 412 kts | 224° |
| 2026-04-24 19:52 | 54.64602 | 11.46868 | 23004 ft | 412 kts | 224° |
| 2026-04-24 19:52 | 54.62376 | 11.43798 | 23004 ft | 409 kts | 224° |
| 2026-04-24 19:53 | 54.60163 | 11.40754 | 22891 ft | 403 kts | 224° |
| 2026-04-24 19:53 | 54.58010 | 11.37806 | 22640 ft | 391 kts | 224° |
| 2026-04-24 19:53 | 54.53880 | 11.32169 | 22144 ft | 371 kts | 224° |
| 2026-04-24 19:54 | 54.51885 | 11.29440 | 21900 ft | 366 kts | 224° |
| 2026-04-24 19:54 | 54.49887 | 11.26703 | 21591 ft | 365 kts | 224° |
| 2026-04-24 19:54 | 54.47939 | 11.24042 | 21118 ft | 363 kts | 224° |
| 2026-04-24 19:54 | 54.45974 | 11.21363 | 20681 ft | 359 kts | 224° |
| 2026-04-24 19:55 | 54.44666 | 11.19582 | 20517 ft | 357 kts | 224° |
| 2026-04-24 19:55 | 54.42066 | 11.16035 | 20189 ft | 361 kts | 224° |
| 2026-04-24 19:55 | 54.40118 | 11.13387 | 19940 ft | 359 kts | 224° |
| 2026-04-24 19:55 | 54.38164 | 11.10742 | 19693 ft | 358 kts | 224° |
| 2026-04-24 19:56 | 54.36230 | 11.08127 | 19450 ft | 357 kts | 224° |
| 2026-04-24 19:56 | 54.34273 | 11.05485 | 19203 ft | 357 kts | 224° |
| 2026-04-24 19:56 | 54.32347 | 11.02863 | 18963 ft | 354 kts | 224° |
| 2026-04-24 19:56 | 54.30491 | 11.00101 | 18789 ft | 351 kts | 230° |
| 2026-04-24 19:57 | 54.28862 | 10.97082 | 18619 ft | 348 kts | 235° |
| 2026-04-24 19:57 | 54.27371 | 10.93864 | 18445 ft | 346 kts | 238° |
| 2026-04-24 19:57 | 54.25935 | 10.90559 | 18270 ft | 346 kts | 239° |
| 2026-04-24 19:57 | 54.24520 | 10.87275 | 18098 ft | 344 kts | 238° |
| 2026-04-24 19:58 | 54.23080 | 10.83975 | 17926 ft | 344 kts | 238° |
| 2026-04-24 19:58 | 54.21654 | 10.80754 | 17750 ft | 343 kts | 238° |
| 2026-04-24 19:58 | 54.20204 | 10.77514 | 17561 ft | 342 kts | 237° |
| 2026-04-24 19:58 | 54.18767 | 10.74327 | 17318 ft | 341 kts | 237° |
| 2026-04-24 19:59 | 54.17329 | 10.71160 | 17025 ft | 335 kts | 238° |
| 2026-04-24 19:59 | 54.15907 | 10.68041 | 16607 ft | 331 kts | 238° |
| 2026-04-24 19:59 | 54.14513 | 10.64986 | 16158 ft | 329 kts | 238° |
| 2026-04-24 19:59 | 54.13110 | 10.61913 | 15685 ft | 327 kts | 238° |
| 2026-04-24 20:00 | 54.11730 | 10.58890 | 15218 ft | 325 kts | 238° |
| 2026-04-24 20:00 | 54.10350 | 10.55840 | 14742 ft | 322 kts | 240° |
| 2026-04-24 20:00 | 54.09105 | 10.52723 | 14287 ft | 319 kts | 243° |
| 2026-04-24 20:00 | 54.07946 | 10.49551 | 13829 ft | 316 kts | 245° |
| 2026-04-24 20:01 | 54.06815 | 10.46392 | 13380 ft | 314 kts | 245° |
| 2026-04-24 20:01 | 54.05680 | 10.43212 | 12921 ft | 312 kts | 245° |
| 2026-04-24 20:01 | 54.04562 | 10.40081 | 12466 ft | 311 kts | 245° |
| 2026-04-24 20:01 | 54.03451 | 10.36975 | 12022 ft | 309 kts | 245° |
| 2026-04-24 20:02 | 54.02700 | 10.34881 | 11724 ft | 308 kts | 244° |
| 2026-04-24 20:02 | 54.01231 | 10.30796 | 11315 ft | 299 kts | 244° |
| 2026-04-24 20:02 | 54.00163 | 10.27853 | 11171 ft | 288 kts | 244° |
| 2026-04-24 20:02 | 53.99120 | 10.25000 | 11070 ft | 281 kts | 244° |
| 2026-04-24 20:03 | 53.98090 | 10.22204 | 10857 ft | 277 kts | 244° |
| 2026-04-24 20:03 | 53.97084 | 10.19474 | 10624 ft | 271 kts | 245° |
| 2026-04-24 20:03 | 53.96101 | 10.16843 | 10421 ft | 263 kts | 244° |
| 2026-04-24 20:03 | 53.95133 | 10.14283 | 10204 ft | 256 kts | 245° |
| 2026-04-24 20:04 | 53.94172 | 10.11766 | 10002 ft | 249 kts | 245° |
| 2026-04-24 20:04 | 53.93239 | 10.09348 | 9805 ft | 243 kts | 245° |
| 2026-04-24 20:04 | 53.92326 | 10.06993 | 9606 ft | 239 kts | 245° |
| 2026-04-24 20:04 | 53.91414 | 10.04644 | 9409 ft | 239 kts | 244° |
| 2026-04-24 20:05 | 53.90499 | 10.02280 | 9198 ft | 239 kts | 245° |
| 2026-04-24 20:05 | 53.89591 | 9.99930 | 9012 ft | 237 kts | 244° |
| 2026-04-24 20:05 | 53.88477 | 9.97849 | 8830 ft | 250 kts | 221° |
| 2026-04-24 20:05 | 53.86838 | 9.96739 | 8667 ft | 261 kts | 191° |
| 2026-04-24 20:06 | 53.85014 | 9.97035 | 8528 ft | 268 kts | 162° |
| 2026-04-24 20:06 | 53.83452 | 9.98681 | 8389 ft | 269 kts | 133° |
| 2026-04-24 20:06 | 53.82488 | 10.01321 | 8266 ft | 262 kts | 103° |
| 2026-04-24 20:06 | 53.82346 | 10.04313 | 8143 ft | 251 kts | 73° |
| 2026-04-24 20:07 | 53.82676 | 10.06116 | 8050 ft | 243 kts | 60° |
| 2026-04-24 20:07 | 53.83710 | 10.09489 | 7809 ft | 239 kts | 55° |
| 2026-04-24 20:07 | 53.84512 | 10.11927 | 7607 ft | 239 kts | 54° |
| 2026-04-24 20:07 | 53.85315 | 10.14366 | 7395 ft | 237 kts | 54° |
| 2026-04-24 20:08 | 53.86116 | 10.16806 | 7191 ft | 236 kts | 55° |
| 2026-04-24 20:08 | 53.86910 | 10.19209 | 6988 ft | 235 kts | 54° |
| 2026-04-24 20:08 | 53.87710 | 10.21626 | 6758 ft | 234 kts | 54° |
| 2026-04-24 20:08 | 53.88502 | 10.24025 | 6528 ft | 233 kts | 54° |
| 2026-04-24 20:09 | 53.89289 | 10.26414 | 6357 ft | 232 kts | 54° |
| 2026-04-24 20:09 | 53.90070 | 10.28790 | 6206 ft | 233 kts | 54° |
| 2026-04-24 20:09 | 53.90860 | 10.31198 | 6032 ft | 232 kts | 54° |
| 2026-04-24 20:09 | 53.91636 | 10.33565 | 5848 ft | 230 kts | 54° |
| 2026-04-24 20:10 | 53.92411 | 10.35938 | 5690 ft | 229 kts | 54° |
| 2026-04-24 20:10 | 53.93178 | 10.38296 | 5536 ft | 229 kts | 54° |
| 2026-04-24 20:10 | 53.93943 | 10.40644 | 5383 ft | 229 kts | 54° |
| 2026-04-24 20:10 | 53.94624 | 10.43112 | 5215 ft | 234 kts | 70° |
| 2026-04-24 20:11 | 53.94630 | 10.45896 | 5061 ft | 247 kts | 102° |
| 2026-04-24 20:11 | 53.93772 | 10.48452 | 4944 ft | 254 kts | 134° |
| 2026-04-24 20:11 | 53.92281 | 10.49984 | 4811 ft | 254 kts | 167° |
| 2026-04-24 20:11 | 53.90515 | 10.50102 | 4709 ft | 256 kts | 196° |
| 2026-04-24 20:12 | 53.88830 | 10.49283 | 4596 ft | 255 kts | 204° |
| 2026-04-24 20:12 | 53.87141 | 10.48298 | 4472 ft | 255 kts | 204° |
| 2026-04-24 20:12 | 53.85581 | 10.46987 | 4347 ft | 246 kts | 226° |
| 2026-04-24 20:12 | 53.84594 | 10.44784 | 4253 ft | 232 kts | 253° |
| 2026-04-24 20:13 | 53.83978 | 10.42289 | 4160 ft | 232 kts | 251° |
| 2026-04-24 20:13 | 53.83154 | 10.39906 | 4052 ft | 236 kts | 242° |
| 2026-04-24 20:13 | 53.82157 | 10.37708 | 3947 ft | 237 kts | 237° |
| 2026-04-24 20:13 | 53.81106 | 10.35584 | 3956 ft | 238 kts | 237° |
| 2026-04-24 20:14 | 53.80038 | 10.33431 | 3951 ft | 238 kts | 237° |
| 2026-04-24 20:14 | 53.78977 | 10.31262 | 3952 ft | 237 kts | 238° |
| 2026-04-24 20:14 | 53.77928 | 10.29106 | 3958 ft | 238 kts | 238° |
| 2026-04-24 20:14 | 53.76914 | 10.27041 | 3964 ft | 222 kts | 238° |
| 2026-04-24 20:15 | 53.75969 | 10.25113 | 3951 ft | 205 kts | 239° |
| 2026-04-24 20:15 | 53.75113 | 10.23361 | 3777 ft | 187 kts | 240° |
| 2026-04-24 20:15 | 53.74294 | 10.21675 | 3462 ft | 184 kts | 240° |
| 2026-04-24 20:15 | 53.73490 | 10.20028 | 3209 ft | 181 kts | 241° |
| 2026-04-24 20:16 | 53.72695 | 10.18406 | 2955 ft | 180 kts | 241° |
| 2026-04-24 20:16 | 53.71894 | 10.16771 | 2695 ft | 180 kts | 240° |
| 2026-04-24 20:16 | 53.71096 | 10.15150 | 2435 ft | 178 kts | 240° |
| 2026-04-24 20:16 | 53.70326 | 10.13588 | 2218 ft | 167 kts | 240° |
| 2026-04-24 20:17 | 53.69592 | 10.12093 | 1949 ft | 163 kts | 242° |
| 2026-04-24 20:17 | 53.68192 | 10.09235 | 1472 ft | 149 kts | 239° |
| 2026-04-24 20:17 | 53.67534 | 10.07929 | 1305 ft | 146 kts | 240° |
| 2026-04-24 20:18 | 53.67086 | 10.07000 | 1179 ft | 155 kts | 238° |
| 2026-04-24 20:18 | 53.66200 | 10.05212 | 865 ft | 144 kts | 239° |
| 2026-04-24 20:18 | 53.65551 | 10.03901 | 710 ft | 144 kts | 236° |
| 2026-04-24 20:18 | 53.64909 | 10.02613 | 457 ft | 149 kts | 237° |
| 2026-04-24 20:19 | 53.64272 | 10.01308 | 276 ft | 146 kts | 233° |
| 2026-04-24 20:19 | 53.63640 | 10.00057 | 65 ft | 139 kts | 235° |
| 2026-04-24 20:19 | 53.63008 | 9.98709 | 474 ft | 143 kts | 238° |
| 2026-04-24 20:19 | 53.62378 | 9.97288 | 797 ft | 163 kts | 239° |
| 2026-04-24 20:20 | 53.61721 | 9.95751 | 1406 ft | 167 kts | 240° |
| 2026-04-24 20:20 | 53.60869 | 9.94255 | 1898 ft | 181 kts | 236° |
| 2026-04-24 20:20 | 53.60005 | 9.92621 | 2349 ft | 197 kts | 237° |
| 2026-04-24 20:20 | 53.59004 | 9.90968 | 2918 ft | 210 kts | 231° |
| 2026-04-24 20:21 | 53.57879 | 9.89256 | 3392 ft | 229 kts | 230° |
| 2026-04-24 20:21 | 53.56705 | 9.87414 | 3874 ft | 237 kts | 231° |
| 2026-04-24 20:21 | 53.55506 | 9.85500 | 4000 ft | 234 kts | 231° |
| 2026-04-24 20:21 | 53.54350 | 9.83670 | 3985 ft | 228 kts | 231° |
| 2026-04-24 20:22 | 53.53189 | 9.81840 | 3993 ft | 230 kts | 231° |
| 2026-04-24 20:22 | 53.51956 | 9.80084 | 3983 ft | 235 kts | 216° |
| 2026-04-24 20:22 | 53.50348 | 9.79404 | 3994 ft | 248 kts | 178° |
| 2026-04-24 20:22 | 53.48753 | 9.80387 | 3996 ft | 250 kts | 140° |
| 2026-04-24 20:23 | 53.47678 | 9.82595 | 4013 ft | 246 kts | 117° |
| 2026-04-24 20:23 | 53.46860 | 9.85094 | 3990 ft | 242 kts | 115° |
| 2026-04-24 20:23 | 53.46063 | 9.87604 | 3993 ft | 245 kts | 115° |
| 2026-04-24 20:23 | 53.45254 | 9.90120 | 3984 ft | 244 kts | 115° |
| 2026-04-24 20:24 | 53.44455 | 9.92603 | 3993 ft | 245 kts | 115° |
| 2026-04-24 20:24 | 53.43648 | 9.95110 | 3987 ft | 244 kts | 115° |
| 2026-04-24 20:24 | 53.42915 | 9.97661 | 3989 ft | 241 kts | 102° |
| 2026-04-24 20:24 | 53.42799 | 10.00356 | 3988 ft | 230 kts | 71° |
| 2026-04-24 20:25 | 53.43428 | 10.02731 | 3990 ft | 217 kts | 50° |
| 2026-04-24 20:25 | 53.44315 | 10.04775 | 3978 ft | 224 kts | 47° |
| 2026-04-24 20:25 | 53.45264 | 10.06868 | 3979 ft | 225 kts | 47° |
| 2026-04-24 20:25 | 53.46212 | 10.08961 | 3983 ft | 226 kts | 46° |
| 2026-04-24 20:26 | 53.47156 | 10.11039 | 3980 ft | 225 kts | 47° |
| 2026-04-24 20:26 | 53.48123 | 10.13138 | 3976 ft | 224 kts | 43° |
| 2026-04-24 20:26 | 53.49208 | 10.14968 | 3981 ft | 222 kts | 36° |
| 2026-04-24 20:26 | 53.50365 | 10.16646 | 3982 ft | 220 kts | 34° |
| 2026-04-24 20:27 | 53.51524 | 10.18295 | 3978 ft | 221 kts | 34° |
| 2026-04-24 20:27 | 53.52706 | 10.19987 | 3973 ft | 221 kts | 34° |
| 2026-04-24 20:27 | 53.53867 | 10.21649 | 3967 ft | 220 kts | 35° |
| 2026-04-24 20:27 | 53.55037 | 10.23321 | 3966 ft | 221 kts | 35° |
| 2026-04-24 20:28 | 53.56205 | 10.24990 | 3962 ft | 221 kts | 35° |
| 2026-04-24 20:28 | 53.57386 | 10.26670 | 3963 ft | 221 kts | 34° |
| 2026-04-24 20:28 | 53.58541 | 10.28312 | 3960 ft | 221 kts | 34° |
| 2026-04-24 20:28 | 53.59730 | 10.30004 | 3959 ft | 221 kts | 34° |
| 2026-04-24 20:29 | 53.60503 | 10.31107 | 3964 ft | 221 kts | 34° |
| 2026-04-24 20:29 | 53.62063 | 10.33333 | 3958 ft | 222 kts | 34° |
| 2026-04-24 20:29 | 53.63239 | 10.35015 | 3954 ft | 221 kts | 34° |
| 2026-04-24 20:29 | 53.64402 | 10.36687 | 3954 ft | 221 kts | 34° |
| 2026-04-24 20:30 | 53.65582 | 10.38385 | 3953 ft | 222 kts | 34° |
| 2026-04-24 20:30 | 53.66742 | 10.40058 | 3950 ft | 221 kts | 34° |
| 2026-04-24 20:30 | 53.67923 | 10.41762 | 3953 ft | 222 kts | 34° |
| 2026-04-24 20:30 | 53.69081 | 10.43432 | 3954 ft | 222 kts | 35° |
| 2026-04-24 20:31 | 53.70262 | 10.45135 | 3952 ft | 222 kts | 34° |
| 2026-04-24 20:31 | 53.71427 | 10.46816 | 3949 ft | 222 kts | 34° |
| 2026-04-24 20:31 | 53.72599 | 10.48502 | 3947 ft | 222 kts | 34° |
| 2026-04-24 20:31 | 53.73785 | 10.50206 | 3945 ft | 222 kts | 34° |
| 2026-04-24 20:32 | 53.74955 | 10.51836 | 3937 ft | 218 kts | 28° |
| 2026-04-24 20:32 | 53.76336 | 10.52695 | 3953 ft | 209 kts | 359° |
| 2026-04-24 20:32 | 53.77735 | 10.52249 | 3956 ft | 205 kts | 338° |
| 2026-04-24 20:32 | 53.79036 | 10.51257 | 3949 ft | 205 kts | 335° |
| 2026-04-24 20:33 | 53.80314 | 10.50206 | 3952 ft | 205 kts | 333° |
| 2026-04-24 20:33 | 53.81409 | 10.48651 | 3954 ft | 209 kts | 307° |
| 2026-04-24 20:33 | 53.81856 | 10.46297 | 3954 ft | 219 kts | 277° |
| 2026-04-24 20:33 | 53.81676 | 10.43729 | 3952 ft | 224 kts | 265° |
| 2026-04-24 20:34 | 53.81343 | 10.41111 | 3946 ft | 225 kts | 264° |
| 2026-04-24 20:34 | 53.81017 | 10.38555 | 3951 ft | 223 kts | 266° |
| 2026-04-24 20:34 | 53.80690 | 10.36008 | 3953 ft | 226 kts | 260° |
| 2026-04-24 20:34 | 53.80025 | 10.33534 | 3952 ft | 234 kts | 245° |
| 2026-04-24 20:35 | 53.79065 | 10.31319 | 3953 ft | 237 kts | 238° |
| 2026-04-24 20:35 | 53.78001 | 10.29199 | 3957 ft | 228 kts | 237° |
| 2026-04-24 20:35 | 53.76999 | 10.27223 | 3954 ft | 216 kts | 238° |
| 2026-04-24 20:35 | 53.76051 | 10.25279 | 3967 ft | 212 kts | 239° |
| 2026-04-24 20:36 | 53.75131 | 10.23388 | 3814 ft | 209 kts | 239° |
| 2026-04-24 20:36 | 53.74215 | 10.21505 | 3446 ft | 210 kts | 239° |
| 2026-04-24 20:36 | 53.73288 | 10.19626 | 3158 ft | 201 kts | 239° |
| 2026-04-24 20:36 | 53.72435 | 10.17901 | 2856 ft | 187 kts | 240° |
| 2026-04-24 20:37 | 53.71637 | 10.16261 | 2611 ft | 174 kts | 241° |
| 2026-04-24 20:37 | 53.70885 | 10.14721 | 2442 ft | 172 kts | 241° |
| 2026-04-24 20:37 | 53.70119 | 10.13155 | 2115 ft | 169 kts | 241° |
| 2026-04-24 20:37 | 53.69395 | 10.11693 | 1883 ft | 162 kts | 242° |
| 2026-04-24 20:38 | 53.68680 | 10.10239 | 1651 ft | 157 kts | 242° |
| 2026-04-24 20:38 | 53.67997 | 10.08892 | 1440 ft | 148 kts | 240° |
| 2026-04-24 20:38 | 53.67336 | 10.07519 | 1272 ft | 149 kts | 240° |
| 2026-04-24 20:38 | 53.66666 | 10.06145 | 1031 ft | 151 kts | 238° |
| 2026-04-24 20:39 | 53.66012 | 10.04843 | 801 ft | 147 kts | 237° |
| 2026-04-24 20:39 | 53.65350 | 10.03494 | 650 ft | 149 kts | 238° |
| 2026-04-24 20:39 | 53.64687 | 10.02175 | 416 ft | 150 kts | 237° |
| 2026-04-24 20:39 | 53.64040 | 10.00855 | 231 ft | 145 kts | 234° |
| 2026-04-24 20:40 | 53.63400 | 9.99563 | 44 ft | 138 kts | 233° |
| 2026-04-24 20:40 | 53.62904 | 9.98552 | 37 ft | 74 kts | 231° |
| 2026-04-24 20:40 | 53.62626 | 9.97995 | 31 ft | 50 kts | 230° |
| 2026-04-24 20:40 | 53.62498 | 9.97773 | 27 ft | 9 kts | 186° |
| 2026-04-24 20:41 | 53.62450 | 9.97820 | 28 ft | 7 kts | 134° |
| 2026-04-24 20:41 | 53.62430 | 9.97887 | 30 ft | 5 kts | 97° |
| 2026-04-24 20:41 | 53.62432 | 9.97941 | 31 ft | 6 kts | 80° |
| 2026-04-24 20:41 | 53.62449 | 9.98041 | 33 ft | 6 kts | 71° |
| 2026-04-24 20:42 | 53.62466 | 9.98103 | 34 ft | 5 kts | 56° |
| 2026-04-24 20:42 | 53.62490 | 9.98151 | 34 ft | 5 kts | 47° |
| 2026-04-24 20:42 | 53.62530 | 9.98228 | 35 ft | 11 kts | 50° |
| 2026-04-24 20:42 | 53.62579 | 9.98327 | 36 ft | 12 kts | 50° |
| 2026-04-24 20:43 | 53.62640 | 9.98452 | 36 ft | 15 kts | 50° |
| 2026-04-24 20:43 | 53.62710 | 9.98593 | 37 ft | 15 kts | 50° |
| 2026-04-24 20:43 | 53.62779 | 9.98731 | 37 ft | 15 kts | 50° |
| 2026-04-24 20:43 | 53.62844 | 9.98866 | 37 ft | 14 kts | 50° |
| 2026-04-24 20:44 | 53.62912 | 9.99004 | 36 ft | 15 kts | 50° |
| 2026-04-24 20:44 | 53.62985 | 9.99150 | 34 ft | 16 kts | 51° |
| 2026-04-24 20:44 | 53.63052 | 9.99290 | 31 ft | 13 kts | 53° |
| 2026-04-24 20:44 | 53.63078 | 9.99351 | 31 ft | 0 kts | 55° |
| 2026-04-24 20:45 | 53.63079 | 9.99354 | 31 ft | 2 kts | 55° |
| 2026-04-24 20:45 | 53.63111 | 9.99436 | 31 ft | 13 kts | 56° |
| 2026-04-24 20:46 | 53.63186 | 9.99600 | 31 ft | 17 kts | 50° |
| 2026-04-24 20:46 | 53.63224 | 9.99719 | 30 ft | 10 kts | 85° |
| 2026-04-24 20:46 | 53.63185 | 9.99794 | 28 ft | 9 kts | 160° |
| 2026-04-24 20:46 | 53.63117 | 9.99851 | 28 ft | 14 kts | 152° |
| 2026-04-24 20:47 | 53.63014 | 9.99941 | 32 ft | 16 kts | 153° |
| 2026-04-24 20:47 | 53.62922 | 10.00019 | 34 ft | 13 kts | 155° |
| 2026-04-24 20:47 | 53.62838 | 10.00076 | 35 ft | 12 kts | 153° |
| 2026-04-24 20:47 | 53.62772 | 10.00133 | 38 ft | 9 kts | 153° |
| 2026-04-24 20:48 | 53.62746 | 10.00159 | 39 ft | 1 kts | 124° |
| 2026-04-24 20:48 | 53.62756 | 10.00222 | 40 ft | 4 kts | 63° |
| 2026-04-24 20:48 | 53.62765 | 10.00254 | 40 ft | 2 kts | 63° |
| 2026-04-24 20:48 | 53.62770 | 10.00270 | 41 ft | 0 kts | 63° |